Íslenskir flugvellir

Veldu flugvelli í þeirri röð sem þeir eiga að birtast og styddu á hnappinn

Uppfært síðast 18.05.2021 - kl. 05:03

SIGMET síðustu 6 klst.

Engin SIGMET skeyti bárust síðustu 6 klst.

Egilsstaðir

METAR síðustu 3 klst

TímiSkeyti
2021-05-18 05.00METAR BIEG 180500Z 35010KT 9999 VCSH FEW015 OVC025 M00/M03 Q1022
2021-05-18 04.00METAR BIEG 180400Z 36008KT 9999 FEW015 OVC025 M01/M03 Q1022
2021-05-18 02.45METAR BIEG 180245Z 29008KT 9999 OVC025 00/M04 Q1022

TAF

TAFBIEG2021-05-18 04.38Z18060601008KT 9999 SCT017 BKN030 TX04/1815Z TNM01/1903Z TEMPO 1806/1812 4000 SHSNRA BKN012

Allur vindur er réttvísandi bæði í Metar og frá sjálfvirkum veðurstöðvum




Aðrir tengdir vefir



Þetta vefsvæði byggir á Eplica